createdAt,value
2018-07-31T00:01:13.455Z,101259.09
2018-07-31T00:04:37.882Z,101264.41
2018-07-31T00:08:02.281Z,101262.88
2018-07-31T00:11:26.743Z,101264.84
2018-07-31T00:14:51.159Z,101261.72
2018-07-31T00:18:15.571Z,101263.27
2018-07-31T00:21:40.117Z,101260.22
2018-07-31T00:25:04.606Z,101260.20
2018-07-31T00:28:29.079Z,101263.22
2018-07-31T00:31:53.496Z,101257.33
2018-07-31T00:35:17.909Z,101255.72
2018-07-31T00:38:42.330Z,101253.09
2018-07-31T00:42:06.806Z,101251.63
2018-07-31T00:45:31.253Z,101252.96
2018-07-31T00:48:55.666Z,101252.81
2018-07-31T00:52:20.155Z,101253.19
2018-07-31T00:55:44.686Z,101254.67
2018-07-31T00:59:09.269Z,101249.91
2018-07-31T01:02:33.910Z,101250.98
2018-07-31T01:05:58.340Z,101251.14
2018-07-31T01:09:22.986Z,101244.95
2018-07-31T01:12:47.658Z,101247.34
2018-07-31T01:16:12.171Z,101250.61
2018-07-31T01:19:36.622Z,101252.52
2018-07-31T01:23:01.163Z,101250.98
2018-07-31T01:26:25.729Z,101250.47
2018-07-31T01:29:50.353Z,101248.77
2018-07-31T01:33:14.870Z,101240.60
2018-07-31T01:36:39.441Z,101248.83
2018-07-31T01:40:04.034Z,101242.28
2018-07-31T01:43:28.578Z,101242.39
2018-07-31T01:46:53.121Z,101247.02
2018-07-31T01:50:18.101Z,101236.98
2018-07-31T01:53:42.557Z,101238.59
2018-07-31T01:57:06.981Z,101230.14
2018-07-31T02:00:31.538Z,101238.63
2018-07-31T02:03:56.124Z,101240.04
2018-07-31T02:07:20.627Z,101241.88
2018-07-31T02:10:47.951Z,101240.83
2018-07-31T02:14:12.358Z,101241.20
2018-07-31T02:17:36.792Z,101232.56
2018-07-31T02:21:01.210Z,101234.02
2018-07-31T02:24:25.652Z,101234.13
2018-07-31T02:27:50.088Z,101231.41
2018-07-31T02:31:14.591Z,101230.95
2018-07-31T02:34:39.008Z,101225.41
2018-07-31T02:38:03.505Z,101220.13
2018-07-31T02:41:27.934Z,101226.30
2018-07-31T02:44:52.592Z,101225.66
2018-07-31T02:48:17.011Z,101231.04
2018-07-31T02:51:41.456Z,101230.55
2018-07-31T02:55:06.861Z,101224.39
2018-07-31T02:58:31.293Z,101228.33
2018-07-31T03:01:55.739Z,101221.11
2018-07-31T03:05:20.149Z,101233.69
2018-07-31T03:08:44.589Z,101230.92
2018-07-31T03:12:09.031Z,101225.95
2018-07-31T03:15:33.477Z,101232.66
2018-07-31T03:18:57.906Z,101235.41
2018-07-31T03:22:22.342Z,101243.67
2018-07-31T03:25:46.875Z,101237.66
2018-07-31T03:29:11.416Z,101246.09
2018-07-31T03:32:36.086Z,101242.47
2018-07-31T03:36:00.575Z,101246.62
2018-07-31T03:39:25.048Z,101247.63
2018-07-31T03:42:49.513Z,101248.48
2018-07-31T03:46:14.096Z,101253.48
2018-07-31T03:49:38.573Z,101253.15
2018-07-31T03:53:03.189Z,101250.39
2018-07-31T03:56:27.743Z,101248.66
2018-07-31T03:59:52.339Z,101253.48
2018-07-31T04:03:16.855Z,101255.85
2018-07-31T04:06:41.389Z,101244.89
2018-07-31T04:10:06.144Z,101242.64
2018-07-31T04:13:30.655Z,101250.55
2018-07-31T04:16:55.231Z,101247.13
2018-07-31T04:20:19.743Z,101246.59
2018-07-31T04:23:44.302Z,101239.05
2018-07-31T04:27:08.835Z,101241.45
2018-07-31T04:30:33.279Z,101241.09
2018-07-31T04:33:57.795Z,101242.31
2018-07-31T04:37:22.444Z,101250.37
2018-07-31T04:40:46.934Z,101256.39
2018-07-31T04:44:11.425Z,101257.45
2018-07-31T04:47:36.171Z,101258.46
2018-07-31T04:51:00.678Z,101257.42
2018-07-31T04:54:25.184Z,101262.92
2018-07-31T04:57:49.739Z,101265.69
2018-07-31T05:01:14.297Z,101266.19
2018-07-31T05:04:38.775Z,101262.42
2018-07-31T05:08:03.240Z,101261.38
2018-07-31T05:11:27.717Z,101258.11
2018-07-31T05:14:52.236Z,101262.21
2018-07-31T05:18:17.487Z,101259.12
2018-07-31T05:21:41.953Z,101258.08
2018-07-31T05:25:06.834Z,101257.35
2018-07-31T05:28:31.343Z,101258.68
2018-07-31T05:31:55.856Z,101265.66
2018-07-31T05:35:20.393Z,101266.66
2018-07-31T05:38:44.983Z,101271.88
2018-07-31T05:42:09.449Z,101274.95
2018-07-31T05:45:34.007Z,101277.48
2018-07-31T05:48:58.572Z,101281.67
2018-07-31T05:52:23.850Z,101285.61
2018-07-31T05:55:48.396Z,101289.03
2018-07-31T05:59:12.941Z,101291.06
2018-07-31T06:02:37.480Z,101287.66
2018-07-31T06:06:01.952Z,101279.91
2018-07-31T06:09:26.578Z,101285.98
2018-07-31T06:12:51.057Z,101275.77
2018-07-31T06:16:15.571Z,101279.33
2018-07-31T06:19:40.203Z,101284.48
2018-07-31T06:23:04.680Z,101285.77
2018-07-31T06:26:29.298Z,101296.99
2018-07-31T06:29:53.835Z,101304.13
2018-07-31T06:33:18.384Z,101307.91
2018-07-31T06:36:42.944Z,101312.20
2018-07-31T06:40:07.815Z,101313.84
2018-07-31T06:43:32.373Z,101311.28
2018-07-31T06:46:56.857Z,101304.67
2018-07-31T06:50:21.379Z,101305.18
2018-07-31T06:53:50.765Z,101306.38
2018-07-31T06:57:15.191Z,101312.66
2018-07-31T07:00:39.649Z,101312.69
2018-07-31T07:04:04.111Z,101321.88
2018-07-31T07:07:28.738Z,101323.62
2018-07-31T07:10:53.188Z,101324.08
2018-07-31T07:14:17.661Z,101325.91
2018-07-31T07:17:42.181Z,101331.84
2018-07-31T07:21:07.045Z,101323.26
2018-07-31T07:24:31.540Z,101318.55
2018-07-31T07:27:56.048Z,101305.08
2018-07-31T07:31:20.537Z,101313.52
2018-07-31T07:34:45.069Z,101313.58
2018-07-31T07:38:09.511Z,101301.63
2018-07-31T07:41:34.062Z,101296.12
2018-07-31T07:44:58.212Z,101287.52
2018-07-31T07:48:22.629Z,101300.36
2018-07-31T07:51:47.145Z,101308.33
2018-07-31T07:55:11.664Z,101320.62
2018-07-31T07:58:36.132Z,101322.18
2018-07-31T08:02:00.555Z,101333.09
2018-07-31T08:05:24.989Z,101320.56
2018-07-31T08:08:49.471Z,101324.02
2018-07-31T08:12:13.888Z,101330.78
2018-07-31T08:15:38.339Z,101321.31
2018-07-31T08:19:02.785Z,101311.67
2018-07-31T08:22:27.238Z,101311.20
2018-07-31T08:26:07.360Z,101317.19
2018-07-31T08:29:31.762Z,101316.19
2018-07-31T08:32:56.197Z,101320.72
2018-07-31T08:36:20.640Z,101324.69
2018-07-31T08:39:45.033Z,101343.41
2018-07-31T08:43:09.470Z,101333.92
2018-07-31T08:46:34.016Z,101339.02
2018-07-31T08:49:58.535Z,101334.83
2018-07-31T08:53:23.105Z,101337.30
2018-07-31T08:56:47.645Z,101340.20
2018-07-31T09:00:12.198Z,101339.48
2018-07-31T09:03:36.722Z,101327.35
2018-07-31T09:07:01.207Z,101326.80
2018-07-31T09:10:25.693Z,101334.53
2018-07-31T09:13:50.191Z,101338.22
2018-07-31T09:17:14.674Z,101337.85
2018-07-31T09:20:39.282Z,101333.14
2018-07-31T09:24:03.895Z,101342.80
2018-07-31T09:27:28.578Z,101339.52
2018-07-31T09:30:58.242Z,101341.65
2018-07-31T09:34:22.698Z,101338.59
2018-07-31T09:37:47.142Z,101335.41
2018-07-31T09:41:11.568Z,101338.30
2018-07-31T09:44:36.002Z,101349.30
2018-07-31T09:48:00.499Z,101350.83
2018-07-31T09:51:24.923Z,101356.77
2018-07-31T09:54:49.440Z,101360.08
2018-07-31T09:58:13.858Z,101357.42
2018-07-31T10:01:38.278Z,101360.59
2018-07-31T10:05:02.773Z,101364.27
2018-07-31T10:08:27.161Z,101364.91
2018-07-31T10:11:51.594Z,101362.52
2018-07-31T10:15:16.032Z,101365.64
2018-07-31T10:18:40.460Z,101373.16
2018-07-31T10:22:04.863Z,101380.69
2018-07-31T10:25:29.289Z,101373.72
2018-07-31T10:28:53.730Z,101381.23
2018-07-31T10:32:18.140Z,101382.31
2018-07-31T10:35:42.539Z,101387.32
2018-07-31T10:39:09.062Z,101386.11
2018-07-31T10:42:33.572Z,101388.81
2018-07-31T10:45:58.201Z,101390.61
2018-07-31T10:49:22.977Z,101384.30
2018-07-31T10:52:47.517Z,101388.79
2018-07-31T10:56:12.255Z,101388.63
2018-07-31T10:59:36.917Z,101390.88
2018-07-31T11:03:01.509Z,101390.25
2018-07-31T11:06:25.957Z,101381.07
2018-07-31T11:09:50.478Z,101382.32
2018-07-31T11:13:14.986Z,101382.55
2018-07-31T11:16:39.519Z,101380.36
2018-07-31T11:20:04.077Z,101388.05
2018-07-31T11:23:28.602Z,101380.03
2018-07-31T11:26:53.161Z,101392.78
2018-07-31T11:30:17.622Z,101387.91
2018-07-31T11:33:42.070Z,101383.42
2018-07-31T11:37:06.530Z,101395.09
2018-07-31T11:40:31.007Z,101383.66
2018-07-31T11:43:55.450Z,101396.27
2018-07-31T11:47:19.911Z,101393.50
2018-07-31T11:50:44.341Z,101391.95
2018-07-31T11:54:08.786Z,101387.84
2018-07-31T11:57:33.220Z,101383.67
2018-07-31T12:00:57.408Z,101392.66
2018-07-31T12:04:21.844Z,101388.23
2018-07-31T12:07:46.254Z,101404.19
2018-07-31T12:11:10.830Z,101404.77
2018-07-31T12:14:35.292Z,101404.95
2018-07-31T12:17:59.731Z,101399.83
2018-07-31T12:21:24.179Z,101419.23
2018-07-31T12:24:48.824Z,101414.84
2018-07-31T12:28:13.260Z,101409.13
2018-07-31T12:31:37.699Z,101405.20
2018-07-31T12:35:02.100Z,101397.37
2018-07-31T12:38:26.651Z,101417.87
2018-07-31T12:41:51.102Z,101425.70
2018-07-31T12:45:15.547Z,101420.13
2018-07-31T12:48:40.157Z,101417.72
2018-07-31T12:52:04.798Z,101426.07
2018-07-31T12:55:29.375Z,101415.38
2018-07-31T12:58:53.961Z,101418.11
2018-07-31T13:02:18.550Z,101414.53
2018-07-31T13:05:43.150Z,101419.16
2018-07-31T13:09:08.958Z,101421.06
2018-07-31T13:12:33.506Z,101421.47
2018-07-31T13:15:57.952Z,101418.61
2018-07-31T13:19:29.003Z,101428.12
2018-07-31T13:22:53.751Z,101427.45
2018-07-31T13:26:18.277Z,101436.42
2018-07-31T13:29:42.779Z,101425.77
2018-07-31T13:33:07.512Z,101425.17
2018-07-31T13:36:32.044Z,101419.64
2018-07-31T13:39:56.621Z,101416.89
2018-07-31T13:43:21.101Z,101414.14
2018-07-31T13:46:45.657Z,101416.50
2018-07-31T13:50:10.447Z,101425.88
2018-07-31T13:53:34.945Z,101427.74
2018-07-31T13:56:59.596Z,101427.49
2018-07-31T14:00:24.287Z,101429.74
2018-07-31T14:03:48.705Z,101425.78
2018-07-31T14:07:13.262Z,101421.40
2018-07-31T14:10:37.882Z,101417.63
2018-07-31T14:14:02.451Z,101416.27
2018-07-31T14:17:26.902Z,101414.36
2018-07-31T14:20:51.400Z,101421.67
2018-07-31T14:24:15.958Z,101414.27
2018-07-31T14:27:40.903Z,101413.72
2018-07-31T14:31:05.424Z,101418.41
2018-07-31T14:34:29.966Z,101413.84
2018-07-31T14:37:54.444Z,101410.47
2018-07-31T14:41:18.934Z,101423.22
2018-07-31T14:44:43.422Z,101412.30
2018-07-31T14:48:08.028Z,101411.49
2018-07-31T14:51:32.572Z,101422.80
2018-07-31T14:54:57.091Z,101427.09
2018-07-31T14:58:21.614Z,101429.27
2018-07-31T15:01:46.244Z,101420.30
2018-07-31T15:05:10.804Z,101425.86
2018-07-31T15:08:38.675Z,101436.69
2018-07-31T15:12:03.102Z,101418.83
2018-07-31T15:15:27.548Z,101429.92
2018-07-31T15:18:52.228Z,101423.95
2018-07-31T15:22:16.638Z,101421.80
2018-07-31T15:25:41.084Z,101433.78
2018-07-31T15:29:05.524Z,101434.72
2018-07-31T15:32:29.964Z,101420.21
2018-07-31T15:35:55.059Z,101422.59
2018-07-31T15:39:19.474Z,101430.94
2018-07-31T15:42:43.890Z,101427.15
2018-07-31T15:46:08.381Z,101430.63
2018-07-31T15:49:32.783Z,101438.07
2018-07-31T15:52:57.522Z,101433.59
2018-07-31T15:56:22.009Z,101424.30
2018-07-31T15:59:46.441Z,101427.30
2018-07-31T16:27:11.418Z,101447.71
2018-07-31T16:30:35.851Z,101442.42
2018-07-31T16:34:00.365Z,101449.33
2018-07-31T16:37:24.741Z,101450.06
2018-07-31T16:40:49.246Z,101441.69
2018-07-31T16:44:13.733Z,101446.30
2018-07-31T16:47:38.256Z,101434.40
2018-07-31T16:51:02.712Z,101449.02
2018-07-31T16:54:27.167Z,101450.16
2018-07-31T16:57:51.782Z,101455.47
2018-07-31T17:01:16.252Z,101454.85
2018-07-31T17:04:40.663Z,101460.67
2018-07-31T17:08:05.087Z,101460.78
2018-07-31T17:11:30.039Z,101464.50
2018-07-31T17:14:54.453Z,101465.44
2018-07-31T17:18:18.882Z,101479.06
2018-07-31T17:21:43.303Z,101475.56
2018-07-31T17:25:07.825Z,101473.66
2018-07-31T17:28:32.334Z,101485.64
2018-07-31T17:31:56.892Z,101481.16
2018-07-31T17:35:21.339Z,101488.80
2018-07-31T17:38:45.763Z,101491.80
2018-07-31T17:42:10.267Z,101493.00
2018-07-31T17:45:34.834Z,101508.38
2018-07-31T17:48:59.331Z,101508.50
2018-07-31T17:52:23.888Z,101505.02
2018-07-31T17:55:48.386Z,101508.79
2018-07-31T17:59:12.861Z,101515.14
2018-07-31T18:02:37.398Z,101516.66
2018-07-31T18:06:02.251Z,101519.59
2018-07-31T18:09:26.774Z,101516.75
2018-07-31T18:12:51.258Z,101518.40
2018-07-31T18:16:15.771Z,101528.09
2018-07-31T18:19:40.355Z,101528.23
2018-07-31T18:23:05.033Z,101530.76
2018-07-31T18:26:29.519Z,101529.22
2018-07-31T18:29:54.324Z,101530.67
2018-07-31T18:33:18.816Z,101535.93
2018-07-31T18:36:43.294Z,101529.34
2018-07-31T18:40:08.289Z,101533.55
2018-07-31T18:43:32.900Z,101535.69
2018-07-31T18:46:57.387Z,101539.63
2018-07-31T18:50:21.982Z,101541.75
2018-07-31T18:53:46.483Z,101541.97
2018-07-31T18:57:11.009Z,101552.27
2018-07-31T19:00:35.505Z,101558.31
2018-07-31T19:03:59.993Z,101563.05
2018-07-31T19:07:25.123Z,101566.77
2018-07-31T19:10:50.289Z,101576.80
2018-07-31T19:14:15.495Z,101583.71
2018-07-31T19:17:40.476Z,101581.36
2018-07-31T19:21:05.497Z,101583.48
2018-07-31T19:24:31.182Z,101588.49
2018-07-31T19:27:55.692Z,101590.15
2018-07-31T19:31:20.407Z,101601.92
2018-07-31T19:34:45.413Z,101608.69
2018-07-31T19:38:10.508Z,101614.72
2018-07-31T19:41:35.515Z,101617.41
2018-07-31T19:45:00.559Z,101618.39
2018-07-31T19:48:25.523Z,101622.12
2018-07-31T19:51:50.667Z,101618.73
2018-07-31T19:55:15.851Z,101625.01
2018-07-31T19:58:40.650Z,101627.23
2018-07-31T20:02:05.201Z,101622.28
2018-07-31T20:05:29.673Z,101631.41
2018-07-31T20:08:54.172Z,101634.34
2018-07-31T20:12:18.802Z,101637.37
2018-07-31T20:15:43.345Z,101644.08
2018-07-31T20:19:07.833Z,101645.87
2018-07-31T20:22:33.176Z,101652.38
2018-07-31T20:25:57.683Z,101666.55
2018-07-31T20:29:22.409Z,101667.41
2018-07-31T20:32:46.910Z,101670.38
2018-07-31T20:36:11.450Z,101672.09
2018-07-31T20:39:36.508Z,101660.83
2018-07-31T20:43:00.927Z,101662.38
2018-07-31T20:46:25.120Z,101670.03
2018-07-31T20:49:49.678Z,101673.34
2018-07-31T20:53:14.539Z,101683.53
2018-07-31T20:56:38.980Z,101684.56
2018-07-31T21:00:03.490Z,101684.37
2018-07-31T21:03:28.002Z,101684.34
2018-07-31T21:06:52.270Z,101696.22
2018-07-31T21:10:16.681Z,101704.66
2018-07-31T21:13:41.113Z,101706.66
2018-07-31T21:17:05.547Z,101705.28
2018-07-31T21:20:29.974Z,101713.98
2018-07-31T21:23:54.364Z,101711.19
2018-07-31T21:27:18.861Z,101719.38
2018-07-31T21:30:43.308Z,101726.57
2018-07-31T21:34:07.788Z,101728.10
2018-07-31T21:37:38.005Z,101726.10
2018-07-31T21:41:02.439Z,101725.95
2018-07-31T21:44:26.966Z,101732.16
2018-07-31T21:47:51.415Z,101736.15
2018-07-31T21:51:16.314Z,101741.88
2018-07-31T21:54:40.741Z,101748.78
2018-07-31T21:58:05.425Z,101748.79
2018-07-31T22:01:29.868Z,101752.06
2018-07-31T22:04:54.600Z,101748.63
2018-07-31T22:08:19.244Z,101748.11
2018-07-31T22:11:43.788Z,101752.75
2018-07-31T22:15:08.478Z,101757.25
2018-07-31T22:18:32.989Z,101756.41
2018-07-31T22:21:57.605Z,101757.22
2018-07-31T22:25:22.128Z,101765.16
2018-07-31T22:28:46.592Z,101770.20
2018-07-31T22:32:11.152Z,101771.73
2018-07-31T22:35:35.777Z,101772.39
2018-07-31T22:39:01.061Z,101771.69
2018-07-31T22:46:57.698Z,101771.70
2018-07-31T22:50:22.569Z,101774.98
2018-07-31T22:53:47.117Z,101773.41
2018-07-31T22:57:11.575Z,101775.61
2018-07-31T23:00:36.015Z,101776.52
2018-07-31T23:04:00.525Z,101778.08
2018-07-31T23:07:24.992Z,101776.69
2018-07-31T23:10:49.412Z,101780.46
2018-07-31T23:14:13.884Z,101781.66
2018-07-31T23:17:38.248Z,101774.95
2018-07-31T23:21:02.806Z,101773.55
2018-07-31T23:24:27.276Z,101777.34
2018-07-31T23:27:51.418Z,101776.64
2018-07-31T23:31:16.063Z,101776.96
2018-07-31T23:34:40.476Z,101779.20
2018-07-31T23:38:04.993Z,101788.50
2018-07-31T23:41:29.466Z,101782.31
2018-07-31T23:44:54.658Z,101778.52
2018-07-31T23:48:19.095Z,101773.61
2018-07-31T23:51:43.532Z,101773.43
2018-07-31T23:55:08.019Z,101772.37
2018-07-31T23:58:32.479Z,101780.63
